Time;durP1;ratioP1;P1;durP2;ratioP2;P2;SDS_P1;SDS_P2;PMS_P1;PMS_P2;Temp;Humidity;BMP_temperature;BMP_pressure;BME280_temperature;BME280_humidity;BME280_pressure;Samples;Min_cycle;Max_cycle;Signal;HPM_P1;HPM_P2
2023/05/11 00:01:24;;;;;;;4.00;2.80;;;;;;;;;;5014065;28;20427;-79
2023/05/11 00:03:50;;;;;;;5.57;2.67;;;;;;;;;;5018774;28;20079;-79
2023/05/11 00:06:16;;;;;;;5.65;2.78;;;;;;;;;;5013513;28;20036;-80
2023/05/11 00:08:42;;;;;;;3.33;2.30;;;;;;;;;;5000840;28;20024;-77
2023/05/11 00:11:11;;;;;;;4.05;2.50;;;;;;;;;;5019570;28;20285;-80
2023/05/11 00:13:41;;;;;;;2.50;2.08;;;;;;;;;;5015843;28;20041;-80
2023/05/11 00:16:10;;;;;;;4.25;2.70;;;;;;;;;;5031728;28;20093;-80
2023/05/11 00:18:40;;;;;;;3.88;2.30;;;;;;;;;;5033109;28;20041;-79
2023/05/11 00:21:07;;;;;;;4.30;2.70;;;;;;;;;;5019434;28;20973;-77
2023/05/11 00:23:33;;;;;;;4.30;2.40;;;;;;;;;;5016183;28;20029;-80
2023/05/11 00:26:02;;;;;;;4.03;2.50;;;;;;;;;;5015875;28;20025;-80
2023/05/11 00:28:28;;;;;;;2.17;1.90;;;;;;;;;;5016446;28;20037;-80
2023/05/11 00:31:04;;;;;;;4.68;3.22;;;;;;;;;;5018415;28;20034;-80
2023/05/11 00:34:00;;;;;;;4.03;2.88;;;;;;;;;;5015704;28;20574;-79
2023/05/11 00:36:33;;;;;;;7.28;2.15;;;;;;;;;;5006093;28;20057;-80
2023/05/11 00:39:02;;;;;;;5.25;2.90;;;;;;;;;;5025907;28;20061;-80
2023/05/11 00:41:32;;;;;;;3.92;2.65;;;;;;;;;;5014679;28;20091;-79
2023/05/11 00:43:58;;;;;;;4.25;2.88;;;;;;;;;;5027929;28;20136;-80
2023/05/11 00:46:30;;;;;;;6.18;2.42;;;;;;;;;;5044201;28;20061;-77
2023/05/11 00:49:01;;;;;;;4.53;2.42;;;;;;;;;;5025119;28;20024;-80
2023/05/11 00:51:33;;;;;;;4.13;2.83;;;;;;;;;;5022293;28;20029;-79
2023/05/11 00:54:03;;;;;;;4.13;2.60;;;;;;;;;;5037112;28;20043;-80
2023/05/11 00:56:38;;;;;;;3.55;2.67;;;;;;;;;;5034626;28;20036;-80
2023/05/11 00:59:08;;;;;;;5.15;2.95;;;;;;;;;;5038893;28;20501;-80
2023/05/11 01:01:35;;;;;;;5.15;2.55;;;;;;;;;;5033462;28;20021;-80
2023/05/11 01:04:04;;;;;;;4.72;2.42;;;;;;;;;;5009373;28;20042;-80
2023/05/11 01:06:43;;;;;;;5.45;3.05;;;;;;;;;;5035168;28;20026;-80
2023/05/11 01:09:14;;;;;;;5.50;2.92;;;;;;;;;;5027493;28;20060;-80
2023/05/11 01:11:40;;;;;;;;;;;;;;;;;;5020706;28;20033;-78
2023/05/11 01:14:12;;;;;;;3.47;2.17;;;;;;;;;;5027690;28;20253;-78
2023/05/11 01:16:41;;;;;;;3.38;2.75;;;;;;;;;;5024888;28;20018;-78
2023/05/11 01:19:19;;;;;;;4.35;2.33;;;;;;;;;;5026732;28;20117;-78
2023/05/11 01:21:46;;;;;;;4.47;2.90;;;;;;;;;;5027424;28;20027;-78
2023/05/11 01:24:23;;;;;;;3.17;2.33;;;;;;;;;;5026860;28;20021;-78
2023/05/11 01:26:49;;;;;;;3.88;2.50;;;;;;;;;;5026686;28;20028;-78
2023/05/11 01:29:34;;;;;;;3.80;2.53;;;;;;;;;;5028089;28;20030;-78
2023/05/11 01:32:03;;;;;;;4.90;2.65;;;;;;;;;;5027958;28;20026;-78
2023/05/11 01:34:33;;;;;;;3.05;2.50;;;;;;;;;;5017090;28;20057;-79
2023/05/11 01:37:02;;;;;;;3.78;2.45;;;;;;;;;;5022192;28;20128;-78
2023/05/11 01:39:36;;;;;;;5.18;3.00;;;;;;;;;;5026620;28;20037;-75
2023/05/11 01:42:06;;;;;;;3.90;2.70;;;;;;;;;;5027215;28;20018;-78
2023/05/11 01:44:32;;;;;;;4.33;2.73;;;;;;;;;;5028269;28;20017;-78
2023/05/11 01:47:00;;;;;;;3.75;2.30;;;;;;;;;;5027087;28;20342;-78
2023/05/11 01:49:27;;;;;;;6.43;2.72;;;;;;;;;;5026726;28;20026;-78
2023/05/11 01:51:54;;;;;;;4.70;2.70;;;;;;;;;;5026411;28;20053;-78
2023/05/11 01:54:20;;;;;;;5.22;2.88;;;;;;;;;;5025996;28;20092;-78
2023/05/11 01:56:47;;;;;;;5.70;2.92;;;;;;;;;;5027442;28;20631;-78
2023/05/11 01:59:13;;;;;;;3.97;2.75;;;;;;;;;;5025847;28;20021;-78
2023/05/11 02:01:42;;;;;;;3.42;2.53;;;;;;;;;;5026544;28;20029;-79
2023/05/11 02:04:10;;;;;;;4.45;2.35;;;;;;;;;;5026310;28;20547;-79
2023/05/11 02:06:36;;;;;;;4.32;2.35;;;;;;;;;;5025450;28;20030;-78
2023/05/11 02:09:02;;;;;;;5.40;3.10;;;;;;;;;;5027392;28;20025;-78
2023/05/11 02:11:29;;;;;;;4.50;2.58;;;;;;;;;;5027288;28;20641;-78
2023/05/11 02:13:56;;;;;;;3.55;2.47;;;;;;;;;;5025552;28;20765;-78
2023/05/11 02:16:24;;;;;;;4.53;2.75;;;;;;;;;;5027543;28;20030;-78
2023/05/11 02:18:51;;;;;;;8.02;2.80;;;;;;;;;;5026050;28;20033;-78
2023/05/11 02:21:17;;;;;;;4.90;3.05;;;;;;;;;;5027277;28;20082;-78
2023/05/11 02:23:45;;;;;;;5.05;2.75;;;;;;;;;;5026566;28;20361;-78
2023/05/11 02:26:12;;;;;;;6.50;3.45;;;;;;;;;;5025762;28;20542;-78
2023/05/11 02:28:38;;;;;;;4.30;2.70;;;;;;;;;;5023289;28;20033;-78
2023/05/11 02:31:08;;;;;;;5.85;3.17;;;;;;;;;;5017269;28;20040;-76
2023/05/11 02:33:35;;;;;;;4.93;3.10;;;;;;;;;;5015971;28;20085;-78
2023/05/11 02:36:02;;;;;;;2.90;2.13;;;;;;;;;;5015070;28;20502;-77
2023/05/11 02:38:32;;;;;;;5.40;3.15;;;;;;;;;;5010791;28;20094;-78
2023/05/11 02:41:01;;;;;;;6.43;2.85;;;;;;;;;;5012412;28;20246;-78
2023/05/11 02:43:30;;;;;;;4.45;2.58;;;;;;;;;;5011217;28;20043;-78
2023/05/11 02:46:01;;;;;;;3.45;2.55;;;;;;;;;;5011353;28;20029;-78
2023/05/11 02:48:28;;;;;;;4.23;2.73;;;;;;;;;;5025974;28;20034;-78
2023/05/11 02:50:55;;;;;;;4.72;2.65;;;;;;;;;;5011579;28;20018;-78
2023/05/11 02:53:23;;;;;;;3.55;2.30;;;;;;;;;;5008571;28;20091;-79
2023/05/11 02:55:50;;;;;;;3.20;2.28;;;;;;;;;;5010564;28;20452;-78
2023/05/11 02:58:17;;;;;;;3.80;2.45;;;;;;;;;;5006917;28;20033;-78
2023/05/11 03:00:43;;;;;;;3.75;2.50;;;;;;;;;;5021500;28;20503;-78
2023/05/11 03:03:09;;;;;;;4.60;2.33;;;;;;;;;;5013867;28;20350;-78
2023/05/11 03:05:35;;;;;;;4.85;3.17;;;;;;;;;;5006176;28;20455;-79
2023/05/11 03:08:01;;;;;;;3.65;2.63;;;;;;;;;;5009200;28;20025;-78
2023/05/11 03:10:28;;;;;;;4.95;2.60;;;;;;;;;;5010115;28;20037;-78
2023/05/11 03:12:54;;;;;;;3.85;2.55;;;;;;;;;;5016609;28;20112;-78
2023/05/11 03:15:20;;;;;;;2.88;2.28;;;;;;;;;;5025737;28;20135;-78
2023/05/11 03:17:47;;;;;;;3.40;2.45;;;;;;;;;;5028375;28;20806;-78
2023/05/11 03:20:13;;;;;;;6.80;3.13;;;;;;;;;;5009348;28;20047;-78
2023/05/11 03:22:39;;;;;;;2.78;1.90;;;;;;;;;;5029673;28;20729;-79
2023/05/11 03:25:06;;;;;;;10.27;4.30;;;;;;;;;;5015284;28;20052;-78
2023/05/11 03:27:33;;;;;;;4.18;2.78;;;;;;;;;;5007667;28;20503;-79
2023/05/11 03:30:00;;;;;;;5.20;2.60;;;;;;;;;;5017705;28;20101;-74
2023/05/11 03:32:26;;;;;;;3.00;2.60;;;;;;;;;;5024930;28;20037;-80
2023/05/11 03:34:52;;;;;;;3.90;2.63;;;;;;;;;;5018720;28;20030;-80
2023/05/11 03:37:18;;;;;;;5.57;3.30;;;;;;;;;;5024808;28;20033;-80
2023/05/11 03:39:46;;;;;;;5.70;2.40;;;;;;;;;;5020392;28;20036;-79
2023/05/11 03:42:13;;;;;;;3.40;2.25;;;;;;;;;;5021208;28;21147;-79
2023/05/11 03:44:40;;;;;;;3.47;2.22;;;;;;;;;;5026461;28;20033;-79
2023/05/11 03:47:07;;;;;;;4.25;2.67;;;;;;;;;;5028981;28;20026;-80
2023/05/11 03:49:35;;;;;;;6.63;2.55;;;;;;;;;;5028235;28;20042;-79
2023/05/11 03:52:02;;;;;;;3.22;2.38;;;;;;;;;;5028644;28;20306;-79
2023/05/11 03:54:28;;;;;;;3.58;2.38;;;;;;;;;;5029720;28;20053;-79
2023/05/11 03:56:54;;;;;;;12.73;3.38;;;;;;;;;;5028793;28;20085;-81
2023/05/11 03:59:20;;;;;;;5.28;2.80;;;;;;;;;;5026287;28;20039;-79
2023/05/11 04:01:46;;;;;;;2.97;2.35;;;;;;;;;;5029078;28;20029;-80
2023/05/11 04:04:12;;;;;;;6.75;3.15;;;;;;;;;;5034207;28;20041;-79
2023/05/11 04:06:38;;;;;;;4.15;2.55;;;;;;;;;;5028019;28;20021;-79
2023/05/11 04:09:05;;;;;;;6.15;2.65;;;;;;;;;;5021891;28;20103;-79
2023/05/11 04:11:30;;;;;;;2.72;1.98;;;;;;;;;;5039009;28;20025;-81
2023/05/11 04:13:56;;;;;;;3.38;2.80;;;;;;;;;;5028514;28;20490;-80
2023/05/11 04:16:22;;;;;;;4.93;2.70;;;;;;;;;;5027900;28;20084;-79
2023/05/11 04:18:49;;;;;;;6.10;3.17;;;;;;;;;;5025983;28;20041;-79
2023/05/11 04:21:15;;;;;;;4.30;2.28;;;;;;;;;;5027254;28;20026;-79
2023/05/11 04:23:41;;;;;;;3.45;2.38;;;;;;;;;;5031712;28;20083;-79
2023/05/11 04:26:07;;;;;;;2.85;2.40;;;;;;;;;;5009545;28;20029;-81
2023/05/11 04:28:33;;;;;;;2.83;2.25;;;;;;;;;;5028264;28;20100;-81
2023/05/11 04:30:59;;;;;;;4.72;2.90;;;;;;;;;;5028177;28;20088;-80
2023/05/11 04:33:25;;;;;;;4.13;2.60;;;;;;;;;;5027800;28;20026;-81
2023/05/11 04:35:51;;;;;;;3.05;2.45;;;;;;;;;;5029014;28;20090;-83
2023/05/11 04:38:18;;;;;;;3.45;2.58;;;;;;;;;;5027975;28;20473;-79
2023/05/11 04:40:44;;;;;;;4.47;2.80;;;;;;;;;;5024295;28;20025;-76
2023/05/11 04:43:10;;;;;;;4.78;2.42;;;;;;;;;;5025290;28;20017;-78
2023/05/11 04:45:36;;;;;;;3.55;2.67;;;;;;;;;;5025763;28;20498;-77
2023/05/11 04:48:02;;;;;;;3.72;2.50;;;;;;;;;;5028002;28;20045;-77
2023/05/11 04:50:28;;;;;;;3.38;2.33;;;;;;;;;;5007812;28;20122;-77
2023/05/11 04:52:54;;;;;;;4.03;3.03;;;;;;;;;;5025304;28;20120;-77
2023/05/11 04:55:23;;;;;;;3.13;2.50;;;;;;;;;;5028314;28;20025;-77
2023/05/11 04:57:49;;;;;;;3.45;2.33;;;;;;;;;;5028801;28;20192;-77
2023/05/11 05:00:15;;;;;;;3.55;2.50;;;;;;;;;;5026095;28;20029;-77
2023/05/11 05:02:41;;;;;;;3.03;2.10;;;;;;;;;;5033785;28;20021;-77
2023/05/11 05:05:07;;;;;;;4.05;2.80;;;;;;;;;;5025090;28;20385;-77
2023/05/11 05:07:33;;;;;;;3.53;2.50;;;;;;;;;;5026860;28;20026;-77
2023/05/11 05:10:00;;;;;;;3.15;2.28;;;;;;;;;;5026905;28;20034;-84
2023/05/11 05:12:26;;;;;;;4.05;2.10;;;;;;;;;;5029907;28;20033;-84
2023/05/11 05:14:52;;;;;;;4.78;2.50;;;;;;;;;;5040538;28;20026;-84
2023/05/11 05:17:18;;;;;;;3.13;2.35;;;;;;;;;;5023793;28;20027;-80
2023/05/11 05:19:44;;;;;;;3.30;2.53;;;;;;;;;;5027905;28;20029;-80
2023/05/11 05:22:10;;;;;;;3.78;2.30;;;;;;;;;;5028029;28;20045;-80
2023/05/11 05:24:36;;;;;;;3.20;2.28;;;;;;;;;;5038015;28;20037;-74
2023/05/11 05:27:02;;;;;;;5.05;2.75;;;;;;;;;;5032863;28;20108;-88
2023/05/11 05:29:28;;;;;;;7.45;2.55;;;;;;;;;;5026874;28;20049;-83
2023/05/11 05:31:54;;;;;;;4.93;2.65;;;;;;;;;;5003752;28;20029;-81
2023/05/11 05:34:20;;;;;;;3.95;2.30;;;;;;;;;;5034454;28;20036;-82
2023/05/11 05:36:46;;;;;;;3.25;2.30;;;;;;;;;;5031373;28;20033;-84
2023/05/11 05:39:12;;;;;;;4.82;2.40;;;;;;;;;;5028316;28;20025;-83
2023/05/11 05:41:38;;;;;;;3.42;2.28;;;;;;;;;;5027636;28;20228;-79
2023/05/11 05:44:04;;;;;;;3.25;2.42;;;;;;;;;;5028571;28;20022;-88
2023/05/11 05:46:30;;;;;;;5.78;2.15;;;;;;;;;;4991859;28;20026;-87
2023/05/11 05:48:56;;;;;;;3.40;2.58;;;;;;;;;;5017654;28;20036;-88
2023/05/11 05:51:22;;;;;;;3.47;2.30;;;;;;;;;;5022124;28;20025;-86
2023/05/11 05:53:48;;;;;;;3.53;2.40;;;;;;;;;;5027305;28;20024;-75
2023/05/11 05:56:14;;;;;;;3.15;1.95;;;;;;;;;;5032729;28;20029;-81
2023/05/11 05:58:42;;;;;;;2.47;2.03;;;;;;;;;;5027037;28;20030;-87
2023/05/11 06:01:08;;;;;;;6.63;2.60;;;;;;;;;;5010537;28;20022;-90
2023/05/11 06:03:46;;;;;;;2.50;1.98;;;;;;;;;;5032353;28;20079;-93
2023/05/11 06:06:12;;;;;;;6.43;2.00;;;;;;;;;;5028336;28;20388;-92
2023/05/11 06:08:38;;;;;;;4.35;2.03;;;;;;;;;;5032013;28;20017;-91
2023/05/11 06:11:04;;;;;;;2.17;1.85;;;;;;;;;;5047843;28;21044;-93
2023/05/11 06:13:30;;;;;;;5.72;2.13;;;;;;;;;;5029476;28;20033;-91
2023/05/11 06:15:56;;;;;;;2.80;2.00;;;;;;;;;;5035205;28;20013;-86
2023/05/11 06:18:22;;;;;;;2.72;2.00;;;;;;;;;;5028197;28;20048;-86
2023/05/11 06:20:48;;;;;;;3.38;1.90;;;;;;;;;;5028434;28;20022;-87
2023/05/11 06:23:14;;;;;;;2.45;1.92;;;;;;;;;;5020885;28;20029;-86
2023/05/11 06:25:41;;;;;;;5.22;2.05;;;;;;;;;;5028855;28;20025;-86
2023/05/11 06:28:07;;;;;;;1.90;1.67;;;;;;;;;;5028910;28;20026;-87
2023/05/11 06:30:33;;;;;;;2.08;1.70;;;;;;;;;;5028531;28;20037;-88
2023/05/11 06:32:59;;;;;;;4.40;1.90;;;;;;;;;;5028673;28;20048;-86
2023/05/11 06:35:25;;;;;;;2.78;2.10;;;;;;;;;;5035418;28;20521;-87
2023/05/11 06:37:51;;;;;;;3.78;2.10;;;;;;;;;;5028857;28;20053;-86
2023/05/11 06:40:17;;;;;;;3.05;1.98;;;;;;;;;;5034635;28;20447;-86
2023/05/11 06:42:43;;;;;;;4.63;1.80;;;;;;;;;;5028856;28;20033;-86
2023/05/11 06:45:10;;;;;;;2.08;1.70;;;;;;;;;;5032147;28;20064;-88
2023/05/11 06:47:36;;;;;;;3.40;2.10;;;;;;;;;;5020652;28;20076;-89
2023/05/11 06:50:02;;;;;;;4.68;1.83;;;;;;;;;;5023237;28;20057;-87
2023/05/11 06:52:28;;;;;;;2.08;1.88;;;;;;;;;;5029172;28;20025;-87
2023/05/11 06:54:55;;;;;;;3.60;2.08;;;;;;;;;;5015354;28;20529;-87
2023/05/11 06:57:21;;;;;;;1.67;1.40;;;;;;;;;;5035825;28;20021;-86
2023/05/11 06:59:47;;;;;;;2.58;1.80;;;;;;;;;;5032947;28;20037;-88
2023/05/11 07:02:13;;;;;;;2.83;2.10;;;;;;;;;;5028486;28;20080;-86
2023/05/11 07:04:39;;;;;;;3.35;2.00;;;;;;;;;;5028240;28;20037;-88
2023/05/11 07:07:05;;;;;;;3.15;1.60;;;;;;;;;;5025983;28;20022;-88
2023/05/11 07:09:31;;;;;;;2.05;1.40;;;;;;;;;;5032453;28;20042;-87
2023/05/11 07:11:57;;;;;;;2.33;1.40;;;;;;;;;;5040370;28;20029;-87
2023/05/11 07:14:23;;;;;;;4.28;1.80;;;;;;;;;;5028616;28;20017;-89
2023/05/11 07:16:51;;;;;;;4.55;1.73;;;;;;;;;;5029802;28;20034;-88
2023/05/11 07:19:17;;;;;;;1.85;1.42;;;;;;;;;;5041912;28;20103;-88
2023/05/11 07:21:43;;;;;;;3.55;1.70;;;;;;;;;;5023232;28;20025;-87
2023/05/11 07:24:09;;;;;;;2.78;1.90;;;;;;;;;;5028716;28;20024;-88
2023/05/11 07:26:35;;;;;;;2.13;1.70;;;;;;;;;;5023650;28;20531;-88
2023/05/11 07:29:01;;;;;;;2.15;1.50;;;;;;;;;;5034634;28;20032;-88
2023/05/11 07:31:28;;;;;;;3.17;1.60;;;;;;;;;;5037723;28;20070;-89
2023/05/11 07:33:54;;;;;;;2.35;1.67;;;;;;;;;;5033925;28;20403;-88
2023/05/11 07:36:21;;;;;;;3.28;1.55;;;;;;;;;;5021927;28;20034;-89
2023/05/11 07:38:47;;;;;;;2.03;1.60;;;;;;;;;;5032395;28;20072;-89
2023/05/11 07:41:13;;;;;;;2.78;1.73;;;;;;;;;;5031545;28;20127;-88
2023/05/11 07:43:39;;;;;;;4.40;1.45;;;;;;;;;;5047895;28;20033;-88
2023/05/11 07:46:08;;;;;;;2.08;1.75;;;;;;;;;;5022990;28;20487;-88
2023/05/11 07:48:34;;;;;;;1.83;1.40;;;;;;;;;;5028162;28;20021;-86
2023/05/11 07:51:00;;;;;;;1.70;1.50;;;;;;;;;;5031947;28;20049;-87
2023/05/11 07:53:26;;;;;;;2.55;1.50;;;;;;;;;;5040580;28;20059;-88
2023/05/11 07:55:52;;;;;;;2.35;1.50;;;;;;;;;;5032036;28;20112;-87
2023/05/11 07:58:21;;;;;;;2.22;1.75;;;;;;;;;;5028119;28;20030;-87
2023/05/11 08:00:47;;;;;;;2.22;1.52;;;;;;;;;;5022397;28;20033;-88
2023/05/11 08:03:16;;;;;;;2.05;1.80;;;;;;;;;;5026169;28;20484;-89
2023/05/11 08:05:42;;;;;;;2.28;1.90;;;;;;;;;;5017880;28;20193;-86
2023/05/11 08:08:08;;;;;;;2.28;1.60;;;;;;;;;;5034091;28;20040;-87
2023/05/11 08:10:35;;;;;;;3.08;2.22;;;;;;;;;;5030802;28;20026;-85
2023/05/11 08:13:01;;;;;;;2.15;1.52;;;;;;;;;;5030738;28;20692;-85
2023/05/11 08:15:27;;;;;;;2.28;1.35;;;;;;;;;;5028972;28;20036;-87
2023/05/11 08:17:53;;;;;;;2.05;1.63;;;;;;;;;;5030000;28;20030;-89
2023/05/11 08:20:19;;;;;;;2.35;1.63;;;;;;;;;;5014231;28;20037;-88
2023/05/11 08:22:45;;;;;;;1.90;1.42;;;;;;;;;;5029207;28;20033;-88
2023/05/11 08:25:12;;;;;;;2.15;1.42;;;;;;;;;;5023058;28;20398;-88
2023/05/11 08:27:38;;;;;;;3.88;1.88;;;;;;;;;;5022520;28;20409;-90
2023/05/11 08:30:04;;;;;;;4.72;1.77;;;;;;;;;;5032917;28;20116;-90
2023/05/11 08:32:34;;;;;;;1.60;1.33;;;;;;;;;;5019474;28;20033;-89
2023/05/11 08:35:06;;;;;;;2.60;1.60;;;;;;;;;;5014495;28;20029;-89
2023/05/11 08:37:31;;;;;;;;;;;;;;;;;;5032790;28;20033;-89
2023/05/11 08:39:58;;;;;;;1.58;1.40;;;;;;;;;;5021729;28;20374;-88
2023/05/11 08:42:24;;;;;;;1.40;1.30;;;;;;;;;;5031895;28;20367;-89
2023/05/11 08:44:53;;;;;;;1.80;1.42;;;;;;;;;;5020444;28;20026;-90
2023/05/11 08:47:19;;;;;;;2.20;1.70;;;;;;;;;;5029904;28;20135;-88
2023/05/11 08:49:45;;;;;;;4.50;1.50;;;;;;;;;;5038074;28;20022;-88
2023/05/11 08:52:12;;;;;;;2.60;1.20;;;;;;;;;;5032509;28;20063;-88
2023/05/11 08:54:38;;;;;;;1.52;1.27;;;;;;;;;;5031471;28;20616;-88
2023/05/11 08:57:05;;;;;;;2.45;1.50;;;;;;;;;;5031885;28;20036;-88
2023/05/11 08:59:32;;;;;;;2.35;1.50;;;;;;;;;;5031923;28;20025;-90
2023/05/11 09:01:59;;;;;;;1.50;1.25;;;;;;;;;;5038975;28;20109;-88
2023/05/11 09:04:26;;;;;;;3.22;1.42;;;;;;;;;;5024330;28;20153;-87
2023/05/11 09:06:52;;;;;;;2.03;1.48;;;;;;;;;;5030833;28;20032;-89
2023/05/11 09:09:18;;;;;;;1.55;1.40;;;;;;;;;;5035424;28;20025;-89
2023/05/11 09:11:48;;;;;;;2.30;1.25;;;;;;;;;;5020296;28;20036;-87
2023/05/11 09:14:14;;;;;;;2.08;1.20;;;;;;;;;;5031353;28;20021;-88
2023/05/11 09:16:40;;;;;;;1.58;1.33;;;;;;;;;;5030211;28;20064;-87
2023/05/11 09:19:06;;;;;;;1.63;1.40;;;;;;;;;;5038701;28;20038;-88
2023/05/11 09:21:33;;;;;;;1.85;1.25;;;;;;;;;;5029497;28;20049;-89
2023/05/11 09:23:59;;;;;;;2.47;1.88;;;;;;;;;;5036096;28;20029;-87
2023/05/11 09:26:28;;;;;;;1.08;1.02;;;;;;;;;;5023075;28;20428;-89
2023/05/11 09:28:56;;;;;;;2.85;1.70;;;;;;;;;;5024869;28;20040;-87
2023/05/11 09:31:41;;;;;;;1.60;1.20;;;;;;;;;;5029548;28;20041;-87
2023/05/11 09:34:20;;;;;;;1.98;1.38;;;;;;;;;;5017494;28;20400;-88
2023/05/11 09:36:53;;;;;;;1.85;1.48;;;;;;;;;;5030549;28;20045;-87
2023/05/11 09:39:33;;;;;;;1.20;1.10;;;;;;;;;;5022033;28;20112;-88
2023/05/11 09:42:14;;;;;;;3.13;1.77;;;;;;;;;;5033463;28;20033;-88
2023/05/11 09:44:40;;;;;;;1.58;1.40;;;;;;;;;;5033194;28;20400;-87
2023/05/11 09:47:11;;;;;;;1.15;1.08;;;;;;;;;;5030727;28;20040;-88
2023/05/11 09:49:37;;;;;;;5.15;1.92;;;;;;;;;;5018955;28;20037;-87
2023/05/11 09:52:03;;;;;;;3.92;1.20;;;;;;;;;;5029393;28;20403;-87
2023/05/11 09:54:29;;;;;;;2.33;1.15;;;;;;;;;;5022436;28;20123;-89
2023/05/11 09:56:59;;;;;;;2.05;1.42;;;;;;;;;;5032139;28;20030;-88
2023/05/11 09:59:40;;;;;;;1.45;1.30;;;;;;;;;;5030154;28;20021;-90
2023/05/11 10:02:15;;;;;;;1.35;1.10;;;;;;;;;;5022599;28;20111;-87
2023/05/11 10:04:41;;;;;;;4.75;1.77;;;;;;;;;;5032130;28;20076;-88
2023/05/11 10:07:07;;;;;;;1.27;1.02;;;;;;;;;;5019291;28;20026;-88
2023/05/11 10:09:34;;;;;;;4.57;1.67;;;;;;;;;;5022745;28;20045;-88
2023/05/11 10:12:01;;;;;;;1.73;1.20;;;;;;;;;;5039707;28;20022;-89
2023/05/11 10:14:28;;;;;;;2.03;1.23;;;;;;;;;;5042351;28;20107;-89
2023/05/11 10:16:55;;;;;;;2.38;1.40;;;;;;;;;;5029822;28;20028;-87
2023/05/11 10:19:22;;;;;;;1.67;1.20;;;;;;;;;;5029384;28;20053;-87
2023/05/11 10:21:48;;;;;;;1.85;1.48;;;;;;;;;;5029945;28;20064;-87
2023/05/11 10:24:13;;;;;;;1.13;1.02;;;;;;;;;;5038365;28;20088;-87
2023/05/11 10:26:40;;;;;;;1.20;1.10;;;;;;;;;;5038537;28;20107;-87
2023/05/11 10:29:07;;;;;;;1.77;1.35;;;;;;;;;;5027019;28;20037;-88
2023/05/11 10:31:33;;;;;;;1.35;0.95;;;;;;;;;;5019106;28;20045;-87
2023/05/11 10:34:00;;;;;;;1.08;0.98;;;;;;;;;;5031697;28;20041;-86
2023/05/11 10:36:27;;;;;;;2.17;1.50;;;;;;;;;;5013670;28;20429;-86
2023/05/11 10:38:53;;;;;;;2.63;1.13;;;;;;;;;;5028943;28;20025;-88
2023/05/11 10:41:38;;;;;;;1.55;1.30;;;;;;;;;;5029440;28;20026;-87
2023/05/11 10:44:19;;;;;;;2.95;1.17;;;;;;;;;;5030201;28;20043;-88
2023/05/11 10:46:51;;;;;;;1.30;1.10;;;;;;;;;;5027604;28;20579;-88
2023/05/11 10:49:27;;;;;;;1.63;1.38;;;;;;;;;;5029788;28;20030;-86
2023/05/11 10:52:12;;;;;;;1.30;1.00;;;;;;;;;;5018977;28;20495;-87
2023/05/11 10:54:50;;;;;;;1.27;1.10;;;;;;;;;;5043061;28;20036;-88
2023/05/11 10:57:34;;;;;;;1.85;1.13;;;;;;;;;;5033958;28;20033;-90
2023/05/11 11:00:13;;;;;;;1.65;1.27;;;;;;;;;;5032765;28;20037;-89
2023/05/11 11:02:39;;;;;;;1.40;1.17;;;;;;;;;;5030631;28;20026;-88
2023/05/11 11:05:09;;;;;;;1.58;1.30;;;;;;;;;;5045066;28;20033;-88
2023/05/11 11:07:54;;;;;;;1.17;1.08;;;;;;;;;;5051676;28;20035;-89
2023/05/11 11:10:30;;;;;;;1.30;1.00;;;;;;;;;;5037652;28;20744;-88
2023/05/11 11:13:03;;;;;;;2.63;1.20;;;;;;;;;;5036866;28;20495;-88
2023/05/11 11:15:48;;;;;;;1.73;1.23;;;;;;;;;;5031176;28;20124;-89
2023/05/11 11:18:21;;;;;;;1.15;1.05;;;;;;;;;;5032107;28;20040;-89
2023/05/11 11:20:54;;;;;;;2.08;1.00;;;;;;;;;;5041239;28;20037;-89
2023/05/11 11:23:38;;;;;;;1.15;1.05;;;;;;;;;;5041923;28;20034;-88
2023/05/11 11:26:05;;;;;;;1.67;1.00;;;;;;;;;;5014364;28;20026;-87
2023/05/11 11:28:49;;;;;;;0.90;0.90;;;;;;;;;;5032728;28;20029;-87
2023/05/11 11:31:29;;;;;;;1.45;0.90;;;;;;;;;;5020584;28;20017;-88
2023/05/11 11:33:59;;;;;;;1.23;1.10;;;;;;;;;;5032277;28;20084;-89
2023/05/11 11:36:44;;;;;;;0.93;0.90;;;;;;;;;;5024003;28;20021;-89
2023/05/11 11:39:10;;;;;;;1.52;1.17;;;;;;;;;;5033661;28;20038;-88
2023/05/11 11:41:36;;;;;;;1.05;0.95;;;;;;;;;;5032555;28;20022;-88
2023/05/11 11:44:03;;;;;;;1.42;1.33;;;;;;;;;;5031336;28;20025;-88
2023/05/11 11:46:29;;;;;;;1.20;1.10;;;;;;;;;;5039508;28;20017;-86
2023/05/11 11:49:08;;;;;;;2.22;1.35;;;;;;;;;;5028499;28;20028;-89
2023/05/11 11:51:36;;;;;;;1.00;0.93;;;;;;;;;;5032061;28;20060;-88
2023/05/11 11:54:03;;;;;;;1.20;1.08;;;;;;;;;;5014616;28;20030;-89
2023/05/11 11:56:29;;;;;;;1.55;1.10;;;;;;;;;;5019590;28;20030;-88
2023/05/11 11:58:57;;;;;;;1.63;1.30;;;;;;;;;;5037484;28;20369;-89
2023/05/11 12:01:27;;;;;;;1.00;1.00;;;;;;;;;;5034456;28;20488;-87
2023/05/11 12:03:58;;;;;;;2.60;1.13;;;;;;;;;;5020383;28;20115;-87
2023/05/11 12:06:25;;;;;;;1.35;1.17;;;;;;;;;;5032759;28;20017;-89
2023/05/11 12:08:51;;;;;;;1.42;1.17;;;;;;;;;;5027197;28;20483;-89
2023/05/11 12:11:17;;;;;;;1.30;1.00;;;;;;;;;;5038686;28;20055;-88
2023/05/11 12:13:44;;;;;;;1.05;0.98;;;;;;;;;;5027299;28;20029;-81
2023/05/11 12:16:11;;;;;;;1.92;1.13;;;;;;;;;;5029781;28;20060;-77
2023/05/11 12:18:37;;;;;;;1.10;1.00;;;;;;;;;;5029520;28;20030;-77
2023/05/11 12:21:03;;;;;;;1.88;1.23;;;;;;;;;;5037019;28;20025;-77
2023/05/11 12:23:30;;;;;;;0.93;0.80;;;;;;;;;;5030032;28;20028;-83
2023/05/11 12:26:06;;;;;;;1.00;1.00;;;;;;;;;;5026607;28;20045;-79
2023/05/11 12:28:32;;;;;;;1.10;0.90;;;;;;;;;;5022799;28;20067;-86
2023/05/11 12:30:59;;;;;;;0.80;0.80;;;;;;;;;;5027920;28;20044;-84
2023/05/11 12:33:25;;;;;;;1.67;1.23;;;;;;;;;;5036776;28;20129;-85
2023/05/11 12:35:55;;;;;;;0.93;0.93;;;;;;;;;;5030033;28;20411;-82
2023/05/11 12:38:21;;;;;;;1.25;1.13;;;;;;;;;;5028755;28;20033;-79
2023/05/11 12:40:48;;;;;;;1.20;1.00;;;;;;;;;;5028657;28;20099;-82
2023/05/11 12:43:18;;;;;;;1.13;0.98;;;;;;;;;;5030690;28;20017;-82
2023/05/11 12:45:45;;;;;;;1.60;1.25;;;;;;;;;;5030645;28;20064;-90
2023/05/11 12:48:11;;;;;;;1.02;0.98;;;;;;;;;;5029056;28;20136;-79
2023/05/11 12:50:40;;;;;;;1.17;1.00;;;;;;;;;;5028961;28;20476;-83
2023/05/11 12:53:17;;;;;;;1.38;0.90;;;;;;;;;;5028646;28;20022;-85
2023/05/11 12:55:43;;;;;;;1.15;0.80;;;;;;;;;;5035497;28;20018;-80
2023/05/11 12:58:09;;;;;;;2.25;1.38;;;;;;;;;;5015343;28;20099;-81
2023/05/11 13:00:35;;;;;;;0.88;0.88;;;;;;;;;;5029158;28;20029;-83
2023/05/11 13:03:01;;;;;;;1.10;1.00;;;;;;;;;;5026568;28;20013;-91
2023/05/11 13:05:28;;;;;;;0.80;0.70;;;;;;;;;;5029470;28;20036;-78
2023/05/11 13:08:02;;;;;;;1.40;1.30;;;;;;;;;;5033243;28;20067;-83
2023/05/11 13:10:28;;;;;;;1.17;0.90;;;;;;;;;;5038547;28;20115;-84
2023/05/11 13:12:55;;;;;;;1.40;1.10;;;;;;;;;;5031708;28;20069;-87
2023/05/11 13:15:22;;;;;;;2.70;1.30;;;;;;;;;;5029106;28;21252;-84
2023/05/11 13:17:57;;;;;;;1.25;0.95;;;;;;;;;;5031915;28;20037;-84
2023/05/11 13:20:26;;;;;;;2.38;0.95;;;;;;;;;;5029724;28;20033;-81
2023/05/11 13:23:12;;;;;;;6.10;1.30;;;;;;;;;;5026888;28;20100;-85
2023/05/11 13:25:44;;;;;;;1.00;0.88;;;;;;;;;;5017935;28;20022;-82
2023/05/11 13:28:10;;;;;;;4.25;0.77;;;;;;;;;;5037769;28;20108;-83
2023/05/11 13:30:36;;;;;;;1.55;0.82;;;;;;;;;;5029143;28;20045;-86
2023/05/11 13:33:02;;;;;;;1.60;1.00;;;;;;;;;;5032699;28;20559;-79
2023/05/11 13:35:28;;;;;;;1.58;0.82;;;;;;;;;;5018755;28;20028;-79
2023/05/11 13:37:55;;;;;;;1.05;0.95;;;;;;;;;;5027043;28;20057;-86
2023/05/11 13:40:24;;;;;;;0.80;0.80;;;;;;;;;;5030082;28;20030;-85
2023/05/11 13:42:50;;;;;;;1.08;0.90;;;;;;;;;;5029697;28;20472;-85
2023/05/11 13:45:16;;;;;;;1.10;0.98;;;;;;;;;;5027792;28;20638;-84
2023/05/11 13:47:42;;;;;;;1.60;1.23;;;;;;;;;;5028661;28;20076;-80
2023/05/11 13:50:08;;;;;;;1.15;0.90;;;;;;;;;;5026501;28;20734;-79
2023/05/11 13:52:34;;;;;;;1.00;0.90;;;;;;;;;;5024997;28;20109;-83
2023/05/11 13:55:00;;;;;;;1.13;1.00;;;;;;;;;;5021188;28;20029;-84
2023/05/11 13:57:29;;;;;;;1.00;0.95;;;;;;;;;;5039690;28;20028;-81
2023/05/11 13:59:55;;;;;;;0.88;0.88;;;;;;;;;;5025971;28;20028;-86
2023/05/11 14:02:21;;;;;;;1.55;1.20;;;;;;;;;;5019799;28;20013;-79
2023/05/11 14:04:47;;;;;;;0.80;0.75;;;;;;;;;;5021137;28;20103;-93
2023/05/11 14:07:14;;;;;;;1.42;0.95;;;;;;;;;;5033216;28;20476;-87
2023/05/11 14:09:42;;;;;;;1.20;1.00;;;;;;;;;;5033523;28;20499;-87
2023/05/11 14:12:08;;;;;;;1.08;0.98;;;;;;;;;;5028634;28;20311;-89
2023/05/11 14:14:34;;;;;;;1.50;1.27;;;;;;;;;;5017093;28;20033;-91
2023/05/11 14:17:00;;;;;;;2.47;1.00;;;;;;;;;;5031042;28;20022;-90
2023/05/11 14:19:26;;;;;;;1.23;1.00;;;;;;;;;;5030680;28;20049;-92
2023/05/11 14:21:52;;;;;;;1.42;0.90;;;;;;;;;;5028020;28;20026;-92
2023/05/11 14:24:19;;;;;;;2.00;1.20;;;;;;;;;;5032581;28;20049;-91
2023/05/11 14:26:45;;;;;;;1.52;1.10;;;;;;;;;;5027243;28;20014;-91
2023/05/11 14:29:11;;;;;;;1.10;1.00;;;;;;;;;;5031447;28;20044;-81
2023/05/11 14:31:37;;;;;;;1.45;1.10;;;;;;;;;;5028670;28;20101;-86
2023/05/11 14:34:03;;;;;;;1.27;1.00;;;;;;;;;;5039803;28;20061;-94
2023/05/11 14:36:30;;;;;;;1.67;1.23;;;;;;;;;;5029693;28;20041;-81
2023/05/11 14:38:56;;;;;;;1.15;1.00;;;;;;;;;;5039045;28;20481;-81
2023/05/11 14:41:22;;;;;;;0.88;0.88;;;;;;;;;;5025517;28;20037;-82
2023/05/11 14:43:48;;;;;;;1.05;0.95;;;;;;;;;;5027861;28;20025;-81
2023/05/11 14:46:18;;;;;;;3.00;1.02;;;;;;;;;;5026428;28;20385;-80
2023/05/11 14:48:44;;;;;;;1.02;0.88;;;;;;;;;;5029760;28;20026;-80